Airfield :
LOGIN :

Register | Disclaimer

   EN    FR    IT 

 










Legend :    VFR   Marginal VFR   IFR   Intensive IFR   Very Intensive IFR
Visi :
Ceiling :
>= 8 km
>= 3000ft
5 to 8 km
1000 to 3000 ft
1500m to 5 km
500 to 1000 ft
800 to 1500m
200 to 500 ft
< 800m
< 200 ft
Symbols :   Thunderstorms  Fog  Heavy snow  Heavy precipitations  Wind > 20 kt
SIGMETs :     Misc.  Thunderstorms  Icing  Turbulence  Mountain Waves  Volcanic Ashes







- Airport Elevation : 1768 ft


LEHC - Huesca Pirineos

CURRENT METAR :
  • 221130Z 25008KT 190V320 CAVOK 27/14 Q1024

EXPIRED METARs :
  • 221100Z 27006KT 220V330 CAVOK 25/15 Q1024
  • 221030Z 27006KT 190V330 CAVOK 24/15 Q1025
  • 221000Z 27004KT 190V340 CAVOK 23/15 Q1025
  • 220930Z 24004KT 170V300 CAVOK 22/14 Q1025
  • 220900Z 25004KT 210V290 CAVOK 21/14 Q1025
  • 220830Z 27004KT 230V320 CAVOK 20/14 Q1024

TAF TAF LEHC
Valid from the 22 at 09:00 until the 23 at 09:00 UTC


220800Z 2209/2309 VRB04KT 9999 FEW040 TX32/2213Z TN16/2305Z
BECMG 2210/2212 27011KT
BECMG 2218/2221 VRB04KT
No reported NOTAMs for that airfield.



MET'MAP, your aeronautical weather chart ! - Copyright ORBIFLY December 2007 - Disclaimer

ORBIFLY MET'MAP TEAM :

Programming & Development : Alexandra Zaïnal
Concept & Development : Baudouin d'Aumeries
Co-Development & Prog : Marc-Olivier Méhu
Technical & hardware support : Manuel Goepfert

Contact : metmap@orbifly.com




SOURCES & CREDITS :

   NOAA